Time;durP1;ratioP1;P1;durP2;ratioP2;P2;SDS_P1;SDS_P2;PMS_P1;PMS_P2;Temp;Humidity;BMP_temperature;BMP_pressure;BME280_temperature;BME280_humidity;BME280_pressure;Samples;Min_cycle;Max_cycle;Signal;HPM_P1;HPM_P2
2021/11/21 00:01:36;;;;;;;51.72;17.90;;;8.90;81.10;;;;;;5065783;28;20068;-79
2021/11/21 00:04:02;;;;;;;50.00;18.48;;;8.90;81.10;;;;;;5056431;28;20108;-79
2021/11/21 00:06:28;;;;;;;50.88;18.25;;;8.90;80.90;;;;;;5064714;28;20107;-78
2021/11/21 00:08:54;;;;;;;52.88;18.55;;;8.90;80.90;;;;;;5076540;28;20052;-79
2021/11/21 00:11:20;;;;;;;43.70;16.23;;;8.90;81.10;;;;;;5074791;28;20526;-79
2021/11/21 00:13:48;;;;;;;48.60;20.30;;;8.90;81.10;;;;;;5076174;28;20094;-78
2021/11/21 00:16:14;;;;;;;39.28;16.00;;;8.90;81.20;;;;;;5075338;28;20025;-79
2021/11/21 00:18:40;;;;;;;52.45;17.05;;;8.80;81.50;;;;;;5074289;28;20031;-79
2021/11/21 00:21:06;;;;;;;49.67;17.80;;;8.90;81.40;;;;;;5076085;28;20029;-79
2021/11/21 00:23:32;;;;;;;46.38;16.50;;;8.90;81.40;;;;;;5075560;28;20055;-79
2021/11/21 00:25:58;;;;;;;43.33;17.05;;;8.90;81.40;;;;;;5075944;28;20024;-79
2021/11/21 00:28:23;;;;;;;43.38;17.40;;;8.90;81.00;;;;;;5075004;28;20032;-78
2021/11/21 00:30:50;;;;;;;42.63;16.83;;;9.00;81.10;;;;;;5074234;28;20041;-79
2021/11/21 00:33:15;;;;;;;41.38;14.88;;;9.00;80.80;;;;;;5075319;28;20052;-79
2021/11/21 00:35:41;;;;;;;40.15;15.43;;;9.00;80.80;;;;;;5075807;28;20021;-79
2021/11/21 00:38:07;;;;;;;44.50;16.85;;;9.00;80.80;;;;;;5075380;28;20035;-79
2021/11/21 00:40:33;;;;;;;43.05;15.40;;;9.00;81.30;;;;;;5075758;28;20056;-78
2021/11/21 00:42:59;;;;;;;44.42;16.45;;;8.90;81.50;;;;;;5074856;28;20040;-79
2021/11/21 00:45:26;;;;;;;47.40;17.63;;;8.90;81.40;;;;;;5079537;28;20402;-79
2021/11/21 00:47:52;;;;;;;41.03;16.98;;;9.00;81.30;;;;;;5075366;28;20125;-79
2021/11/21 00:50:24;;;;;;;39.72;15.30;;;8.90;81.80;;;;;;5074554;28;20080;-79
2021/11/21 00:52:56;;;;;;;41.25;14.52;;;8.80;82.00;;;;;;5075594;28;20105;-79
2021/11/21 00:55:32;;;;;;;43.22;15.02;;;8.90;81.80;;;;;;5074568;28;20160;-78
2021/11/21 00:57:57;;;;;;;54.20;16.60;;;8.90;81.90;;;;;;5055551;28;20013;-79
2021/11/21 01:00:23;;;;;;;47.28;15.88;;;8.90;82.00;;;;;;5055821;28;20071;-79
2021/11/21 01:02:49;;;;;;;44.92;15.68;;;9.00;81.60;;;;;;5075389;28;20032;-79
2021/11/21 01:05:14;;;;;;;46.10;16.63;;;9.00;81.40;;;;;;5075182;28;20032;-79
2021/11/21 01:07:40;;;;;;;44.95;16.58;;;9.00;81.20;;;;;;5075415;28;20025;-79
2021/11/21 01:10:12;;;;;;;45.92;16.05;;;9.00;81.50;;;;;;5074312;28;20029;-79
2021/11/21 01:12:40;;;;;;;44.40;16.08;;;9.00;81.60;;;;;;5074060;28;20032;-78
2021/11/21 01:15:07;;;;;;;45.05;17.00;;;9.00;81.40;;;;;;5075313;28;20024;-79
2021/11/21 01:17:33;;;;;;;46.90;15.93;;;9.00;81.30;;;;;;5074382;28;20031;-79
2021/11/21 01:20:02;;;;;;;41.88;16.73;;;9.00;81.60;;;;;;5074981;28;20024;-79
2021/11/21 01:22:29;;;;;;;44.85;18.42;;;9.00;81.50;;;;;;5074418;28;20016;-79
2021/11/21 01:24:56;;;;;;;44.50;18.70;;;9.00;81.30;;;;;;5075199;28;20021;-79
2021/11/21 01:27:22;;;;;;;45.38;17.98;;;9.00;81.30;;;;;;5075265;28;20074;-79
2021/11/21 01:29:48;;;;;;;34.10;15.35;;;9.00;81.50;;;;;;5074531;28;20028;-79
2021/11/21 01:32:14;;;;;;;39.55;15.27;;;9.00;81.70;;;;;;5075294;28;20548;-78
2021/11/21 01:34:39;;;;;;;47.78;17.42;;;9.00;81.70;;;;;;5073053;28;20021;-79
2021/11/21 01:37:05;;;;;;;44.55;15.52;;;9.00;81.80;;;;;;5074745;28;20035;-79
2021/11/21 01:39:31;;;;;;;42.17;17.00;;;9.00;81.70;;;;;;5073991;28;20032;-79
2021/11/21 01:41:56;;;;;;;42.85;16.52;;;9.00;81.90;;;;;;5065745;28;20032;-78
2021/11/21 01:44:22;;;;;;;40.53;15.27;;;9.00;81.80;;;;;;5071928;28;20042;-79
2021/11/21 01:46:51;;;;;;;38.28;14.77;;;9.00;81.90;;;;;;5095223;28;20036;-79
2021/11/21 01:49:17;;;;;;;34.85;13.68;;;8.90;82.10;;;;;;5075126;28;20512;-78
2021/11/21 01:51:43;;;;;;;29.13;13.05;;;8.90;82.40;;;;;;5073660;28;20477;-79
2021/11/21 01:54:09;;;;;;;32.92;12.70;;;8.90;82.50;;;;;;5074546;28;20021;-79
2021/11/21 01:56:35;;;;;;;31.48;13.38;;;8.90;82.50;;;;;;5074435;28;20024;-79
2021/11/21 01:59:02;;;;;;;38.60;13.60;;;8.90;82.60;;;;;;5074223;28;20734;-79
2021/11/21 02:01:27;;;;;;;35.88;12.52;;;8.90;82.60;;;;;;5074867;28;20081;-79
2021/11/21 02:03:53;;;;;;;37.58;14.02;;;9.00;82.40;;;;;;5074737;28;20107;-78
2021/11/21 02:06:19;;;;;;;37.55;16.17;;;9.00;82.20;;;;;;5074831;28;20520;-79
2021/11/21 02:08:46;;;;;;;41.28;15.75;;;9.00;82.00;;;;;;5074245;28;20036;-79
2021/11/21 02:11:11;;;;;;;36.97;15.25;;;9.10;81.90;;;;;;5074292;28;20638;-79
2021/11/21 02:13:37;;;;;;;39.30;13.60;;;9.10;81.90;;;;;;5077343;28;20028;-79
2021/11/21 02:16:03;;;;;;;40.88;15.32;;;9.10;81.70;;;;;;5077399;28;20024;-79
2021/11/21 02:18:29;;;;;;;43.72;14.95;;;9.20;81.60;;;;;;5078667;28;20017;-79
2021/11/21 02:20:56;;;;;;;33.50;13.32;;;9.10;81.70;;;;;;5077675;28;20400;-79
2021/11/21 02:23:24;;;;;;;43.28;16.45;;;9.10;81.90;;;;;;5078473;28;20020;-79
2021/11/21 02:25:50;;;;;;;45.80;15.85;;;9.10;82.00;;;;;;5078405;28;20466;-79
2021/11/21 02:28:17;;;;;;;39.85;14.20;;;9.10;81.80;;;;;;5077506;28;20029;-79
2021/11/21 02:30:43;;;;;;;41.03;15.95;;;9.10;82.10;;;;;;5077446;28;20028;-79
2021/11/21 02:33:14;;;;;;;41.83;16.08;;;9.10;82.20;;;;;;5078410;28;20013;-79
2021/11/21 02:35:42;;;;;;;35.15;12.85;;;9.10;82.00;;;;;;5077824;28;20024;-78
2021/11/21 02:38:09;;;;;;;30.60;14.10;;;9.20;81.80;;;;;;5077940;28;20020;-78
2021/11/21 02:40:35;;;;;;;35.40;14.30;;;9.20;81.80;;;;;;5078236;28;20024;-79
2021/11/21 02:43:01;;;;;;;31.42;12.73;;;9.20;81.90;;;;;;5077572;28;20028;-79
2021/11/21 02:45:27;;;;;;;40.13;14.65;;;9.20;81.70;;;;;;5087283;28;20084;-79
2021/11/21 02:47:53;;;;;;;44.10;14.93;;;9.20;81.60;;;;;;5096657;28;20059;-78
2021/11/21 02:50:21;;;;;;;39.03;12.50;;;9.20;81.70;;;;;;5084976;28;20043;-79
2021/11/21 02:52:49;;;;;;;33.88;14.82;;;9.20;81.70;;;;;;5078013;28;20032;-79
2021/11/21 02:55:15;;;;;;;37.30;13.35;;;9.20;81.90;;;;;;5078004;28;20382;-79
2021/11/21 02:57:42;;;;;;;35.25;14.40;;;9.10;82.00;;;;;;5077081;28;20063;-79
2021/11/21 03:00:11;;;;;;;33.88;15.27;;;9.20;82.00;;;;;;5077786;28;20028;-79
2021/11/21 03:02:42;;;;;;;39.50;14.40;;;9.10;82.00;;;;;;5077859;28;20080;-79
2021/11/21 03:05:09;;;;;;;30.50;12.65;;;9.20;82.00;;;;;;5077178;28;20033;-79
2021/11/21 03:07:35;;;;;;;31.77;13.68;;;9.20;81.80;;;;;;5093275;28;20024;-79
2021/11/21 03:10:00;;;;;;;35.47;13.57;;;9.20;81.70;;;;;;5092507;28;20501;-79
2021/11/21 03:12:26;;;;;;;34.05;13.68;;;9.20;81.80;;;;;;5076414;28;20023;-79
2021/11/21 03:14:52;;;;;;;33.95;13.73;;;9.20;81.80;;;;;;5077791;28;20029;-79
2021/11/21 03:17:19;;;;;;;27.77;12.50;;;9.30;81.80;;;;;;5077583;28;20046;-78
2021/11/21 03:19:45;;;;;;;31.10;13.30;;;9.20;81.80;;;;;;5076907;28;20028;-79
2021/11/21 03:22:11;;;;;;;33.13;12.80;;;9.20;81.80;;;;;;5077380;28;20028;-79
2021/11/21 03:24:49;;;;;;;33.75;13.68;;;9.10;82.20;;;;;;5075835;28;20162;-79
2021/11/21 03:27:14;;;;;;;27.85;11.65;;;9.00;83.20;;;;;;5076348;28;20021;-78
2021/11/21 03:29:40;;;;;;;29.63;13.07;;;8.90;83.70;;;;;;5077559;28;20036;-79
2021/11/21 03:32:06;;;;;;;35.17;13.40;;;8.90;83.60;;;;;;5076390;28;20024;-78
2021/11/21 03:34:34;;;;;;;36.53;14.15;;;8.90;83.40;;;;;;5077368;28;20028;-78
2021/11/21 03:37:00;;;;;;;31.05;14.27;;;8.90;83.10;;;;;;5077218;28;20390;-78
2021/11/21 03:39:25;;;;;;;30.08;12.73;;;9.00;83.00;;;;;;5077111;28;20039;-79
2021/11/21 03:41:53;;;;;;;29.38;12.95;;;9.00;83.00;;;;;;5076570;28;20025;-79
2021/11/21 03:44:19;;;;;;;29.10;13.00;;;9.00;82.80;;;;;;5077032;28;20024;-79
2021/11/21 03:46:45;;;;;;;29.77;13.63;;;9.00;82.70;;;;;;5082883;28;20039;-79
2021/11/21 03:49:11;;;;;;;27.35;12.32;;;9.10;82.70;;;;;;5075650;28;20047;-79
2021/11/21 03:51:36;;;;;;;33.25;12.52;;;9.10;82.60;;;;;;5076724;28;20506;-79
2021/11/21 03:54:02;;;;;;;25.50;12.30;;;9.10;82.40;;;;;;5076027;28;20027;-78
2021/11/21 03:56:28;;;;;;;33.05;12.40;;;9.20;82.30;;;;;;5076828;28;20054;-78
2021/11/21 03:59:01;;;;;;;28.27;13.65;;;9.20;82.30;;;;;;5076496;28;20029;-78
2021/11/21 04:01:26;;;;;;;28.58;12.23;;;9.20;82.10;;;;;;5075979;28;20028;-79
2021/11/21 04:03:52;;;;;;;29.52;12.45;;;9.20;82.20;;;;;;5076541;28;20097;-79
2021/11/21 04:06:18;;;;;;;34.92;13.18;;;9.10;82.40;;;;;;5076539;28;20119;-79
2021/11/21 04:08:44;;;;;;;25.42;11.70;;;9.00;82.60;;;;;;5076451;28;20060;-79
2021/11/21 04:11:10;;;;;;;34.83;12.32;;;8.90;82.90;;;;;;5074605;28;20083;-79
2021/11/21 04:13:36;;;;;;;35.67;13.75;;;8.80;83.30;;;;;;5075043;28;20032;-78
2021/11/21 04:16:05;;;;;;;35.25;12.90;;;8.80;83.50;;;;;;5075564;28;20394;-78
2021/11/21 04:18:30;;;;;;;36.20;13.95;;;8.90;83.50;;;;;;5076504;28;20056;-78
2021/11/21 04:20:57;;;;;;;27.50;10.60;;;8.90;83.40;;;;;;5076318;28;20521;-78
2021/11/21 04:23:24;;;;;;;26.67;12.00;;;8.90;83.30;;;;;;5075420;28;20486;-78
2021/11/21 04:25:49;;;;;;;30.30;11.77;;;9.00;83.30;;;;;;5076278;28;20035;-79
2021/11/21 04:28:15;;;;;;;27.55;11.68;;;9.00;83.10;;;;;;5074972;28;20028;-79
2021/11/21 04:30:41;;;;;;;30.42;13.27;;;9.00;82.90;;;;;;5075993;28;20402;-79
2021/11/21 04:33:09;;;;;;;31.20;13.18;;;9.00;82.90;;;;;;5074768;28;20059;-79
2021/11/21 04:35:35;;;;;;;31.40;11.80;;;9.10;82.60;;;;;;5075102;28;20024;-78
2021/11/21 04:38:01;;;;;;;31.08;13.50;;;9.10;82.70;;;;;;5075102;28;20807;-79
2021/11/21 04:40:27;;;;;;;26.77;11.65;;;9.20;82.50;;;;;;5075897;28;20550;-78
2021/11/21 04:42:54;;;;;;;30.13;12.48;;;9.20;82.50;;;;;;5075158;28;20028;-78
2021/11/21 04:45:20;;;;;;;28.15;11.88;;;9.10;82.70;;;;;;5084006;28;20024;-78
2021/11/21 04:47:45;;;;;;;33.65;12.68;;;9.10;82.70;;;;;;5094445;28;20058;-78
2021/11/21 04:50:13;;;;;;;26.48;12.38;;;9.20;82.60;;;;;;5055517;28;20029;-79
2021/11/21 04:52:39;;;;;;;26.77;12.15;;;9.20;82.40;;;;;;5055611;28;20029;-79
2021/11/21 04:55:06;;;;;;;25.27;11.23;;;9.20;82.50;;;;;;5054555;28;20025;-79
2021/11/21 04:57:32;;;;;;;26.48;11.75;;;9.10;82.70;;;;;;5064824;28;20124;-79
2021/11/21 04:59:58;;;;;;;30.42;11.48;;;9.10;82.80;;;;;;5075550;28;20056;-79
2021/11/21 05:02:23;;;;;;;25.73;11.82;;;9.10;82.80;;;;;;5074988;28;20028;-79
2021/11/21 05:04:49;;;;;;;28.40;11.77;;;9.10;82.90;;;;;;5074658;28;20436;-78
2021/11/21 05:07:22;;;;;;;30.50;13.50;;;9.10;82.70;;;;;;5075255;28;20577;-78
2021/11/21 05:09:48;;;;;;;28.83;12.25;;;9.20;82.50;;;;;;5075062;28;20024;-79
2021/11/21 05:12:13;;;;;;;28.90;12.15;;;9.20;82.60;;;;;;5074524;28;20478;-79
2021/11/21 05:14:39;;;;;;;29.55;12.52;;;9.10;82.70;;;;;;5075464;28;20028;-79
2021/11/21 05:17:05;;;;;;;26.38;11.43;;;9.10;82.70;;;;;;5075357;28;20546;-79
2021/11/21 05:19:31;;;;;;;25.38;10.85;;;9.10;82.80;;;;;;5074502;28;20024;-79
2021/11/21 05:21:56;;;;;;;31.90;13.60;;;9.20;82.60;;;;;;5075196;28;20029;-79
2021/11/21 05:24:26;;;;;;;23.35;10.90;;;9.20;82.60;;;;;;5074553;28;20101;-79
2021/11/21 05:26:52;;;;;;;25.55;11.85;;;9.20;82.50;;;;;;5075409;28;20052;-79
2021/11/21 05:29:18;;;;;;;31.30;12.80;;;9.20;82.50;;;;;;5074773;28;20039;-79
2021/11/21 05:31:44;;;;;;;32.80;11.52;;;9.20;82.50;;;;;;5074254;28;20028;-79
2021/11/21 05:34:10;;;;;;;28.08;12.93;;;9.20;82.40;;;;;;5075134;28;20033;-79
2021/11/21 05:36:36;;;;;;;27.10;11.30;;;9.20;82.50;;;;;;5075243;28;20028;-78
2021/11/21 05:39:02;;;;;;;22.23;10.10;;;9.20;82.70;;;;;;5075003;28;20394;-79
2021/11/21 05:41:30;;;;;;;24.23;10.73;;;9.20;82.90;;;;;;5074146;28;20035;-79
2021/11/21 05:43:56;;;;;;;20.65;10.48;;;9.20;83.10;;;;;;5075057;28;20086;-79
2021/11/21 05:46:22;;;;;;;20.98;10.30;;;9.20;83.10;;;;;;5091355;28;20029;-79
2021/11/21 05:48:48;;;;;;;27.50;10.88;;;9.20;83.10;;;;;;5110988;28;20036;-79
2021/11/21 05:51:13;;;;;;;22.30;10.93;;;9.20;83.30;;;;;;5075269;28;20513;-79
2021/11/21 05:53:39;;;;;;;21.92;9.35;;;9.20;83.20;;;;;;5074948;28;20495;-79
2021/11/21 05:56:05;;;;;;;23.50;10.85;;;9.20;83.20;;;;;;5074845;28;20023;-79
2021/11/21 05:58:41;;;;;;;;;;;;;;;;;;;;;
2021/11/21 06:01:06;;;;;;;27.30;10.32;;;9.10;83.70;;;;;;5074921;28;20020;-79
2021/11/21 06:03:32;;;;;;;23.52;10.88;;;9.10;83.70;;;;;;5073886;28;20060;-79
2021/11/21 06:05:58;;;;;;;17.35;9.38;;;9.10;83.90;;;;;;5074901;28;20060;-79
2021/11/21 06:08:23;;;;;;;20.88;10.63;;;9.00;84.00;;;;;;5073589;28;20080;-79
2021/11/21 06:10:49;;;;;;;20.70;10.27;;;9.00;84.40;;;;;;5074611;28;20445;-79
2021/11/21 06:13:15;;;;;;;19.75;9.23;;;9.00;84.40;;;;;;5074784;28;20028;-79
2021/11/21 06:15:40;;;;;;;21.50;8.73;;;9.00;84.50;;;;;;5072979;28;20046;-78
2021/11/21 06:18:06;;;;;;;18.00;9.18;;;9.00;84.10;;;;;;5074653;28;20020;-79
2021/11/21 06:20:32;;;;;;;20.42;9.30;;;9.10;84.20;;;;;;5074007;28;20106;-79
2021/11/21 06:22:58;;;;;;;19.10;9.77;;;9.10;84.00;;;;;;5073194;28;20029;-79
2021/11/21 06:25:24;;;;;;;21.67;8.80;;;9.00;84.20;;;;;;5074506;28;20024;-79
2021/11/21 06:27:50;;;;;;;19.42;9.55;;;9.10;83.80;;;;;;5090137;28;20122;-79
2021/11/21 06:30:15;;;;;;;20.40;9.07;;;9.10;84.00;;;;;;5073514;28;20021;-79
2021/11/21 06:32:48;;;;;;;16.85;9.05;;;9.10;83.90;;;;;;5073632;28;20088;-79
2021/11/21 06:35:14;;;;;;;17.85;9.38;;;9.10;83.90;;;;;;5072941;28;20489;-79
2021/11/21 06:37:42;;;;;;;18.67;9.85;;;9.00;84.30;;;;;;5073785;28;20481;-79
2021/11/21 06:40:08;;;;;;;15.93;8.45;;;9.10;84.00;;;;;;5074418;28;20445;-80
2021/11/21 06:42:34;;;;;;;17.05;8.98;;;9.00;84.30;;;;;;5073108;28;20829;-79
2021/11/21 06:44:59;;;;;;;22.92;9.27;;;9.00;84.40;;;;;;5079767;28;20055;-79
2021/11/21 06:47:25;;;;;;;23.85;9.65;;;9.10;84.10;;;;;;5094691;28;20020;-79
2021/11/21 06:49:51;;;;;;;16.40;8.93;;;9.10;83.80;;;;;;5110442;28;20028;-79
2021/11/21 06:52:18;;;;;;;18.10;9.45;;;9.10;83.60;;;;;;5081028;28;20082;-79
2021/11/21 06:54:44;;;;;;;20.55;9.95;;;9.20;83.60;;;;;;5074331;28;20031;-79
2021/11/21 06:57:11;;;;;;;18.88;9.20;;;9.10;83.80;;;;;;5072931;28;20024;-79
2021/11/21 06:59:37;;;;;;;18.70;9.15;;;9.10;83.60;;;;;;5076411;28;20020;-79
2021/11/21 07:02:02;;;;;;;19.35;8.88;;;9.10;83.60;;;;;;5079915;28;20035;-81
2021/11/21 07:04:28;;;;;;;18.52;8.40;;;9.00;83.90;;;;;;5054005;28;20040;-92
2021/11/21 07:06:56;;;;;;;15.43;8.10;;;9.00;83.90;;;;;;5074896;28;20024;-86
2021/11/21 08:53:18;;;;;;;11.15;6.90;;;8.90;88.20;;;;;;5069978;28;20846;-83
2021/11/21 08:55:43;;;;;;;11.95;6.65;;;9.20;87.80;;;;;;5060079;28;20099;-83
2021/11/21 08:58:09;;;;;;;13.32;7.72;;;9.40;87.40;;;;;;5057136;28;20071;-83
2021/11/21 09:00:35;;;;;;;14.07;8.43;;;9.60;86.60;;;;;;5059949;28;20036;-83
2021/11/21 09:03:01;;;;;;;13.90;8.05;;;9.80;86.00;;;;;;5069974;28;20029;-85
2021/11/21 09:05:27;;;;;;;14.65;8.95;;;10.00;85.50;;;;;;5068295;28;20442;-83
2021/11/21 09:07:52;;;;;;;14.05;7.78;;;10.30;84.70;;;;;;5066541;28;20048;-81
2021/11/21 09:10:21;;;;;;;15.02;7.97;;;10.40;84.10;;;;;;5072267;28;20114;-83
2021/11/21 09:12:47;;;;;;;13.70;7.65;;;10.50;83.60;;;;;;5064639;28;20115;-83
2021/11/21 09:15:16;;;;;;;14.80;7.07;;;10.70;82.90;;;;;;5068518;28;20053;-83
2021/11/21 09:17:47;;;;;;;15.50;8.20;;;10.80;83.00;;;;;;5068817;28;20020;-84
2021/11/21 09:20:13;;;;;;;14.52;7.93;;;10.90;82.30;;;;;;5066054;28;20114;-84
2021/11/21 09:22:40;;;;;;;11.15;7.05;;;11.10;82.00;;;;;;5068027;28;20024;-84
2021/11/21 09:25:07;;;;;;;11.35;6.90;;;11.30;81.50;;;;;;5068419;28;20041;-85
2021/11/21 09:27:34;;;;;;;11.82;6.82;;;11.50;81.10;;;;;;5068706;28;20028;-77
2021/11/21 09:29:59;;;;;;;13.25;7.25;;;11.60;80.70;;;;;;5068249;28;20017;-77
2021/11/21 09:32:25;;;;;;;12.02;7.10;;;11.50;81.00;;;;;;5068582;28;20035;-77
2021/11/21 09:34:51;;;;;;;12.35;7.50;;;11.50;81.10;;;;;;5070119;28;20016;-75
2021/11/21 09:37:17;;;;;;;14.45;7.43;;;11.40;81.20;;;;;;5068237;28;20031;-83
2021/11/21 09:39:45;;;;;;;14.30;8.25;;;11.20;81.20;;;;;;5067746;28;20080;-84
2021/11/21 09:42:11;;;;;;;12.77;7.93;;;11.20;81.70;;;;;;5066254;28;20060;-84
2021/11/21 09:44:37;;;;;;;14.32;7.13;;;11.10;82.10;;;;;;5069852;28;20031;-84
2021/11/21 09:47:03;;;;;;;12.55;7.32;;;11.20;82.60;;;;;;5070444;28;20518;-84
2021/11/21 09:49:29;;;;;;;14.20;7.70;;;11.10;82.50;;;;;;5068512;28;20035;-86
2021/11/21 09:51:56;;;;;;;12.80;7.22;;;11.10;82.60;;;;;;5063599;28;20135;-78
2021/11/21 09:54:28;;;;;;;10.68;6.65;;;11.20;82.50;;;;;;5070100;28;20021;-82
2021/11/21 09:56:55;;;;;;;12.25;7.05;;;11.20;82.30;;;;;;5069826;28;20052;-78
2021/11/21 09:59:50;;;;;;;11.82;6.80;;;11.10;82.80;;;;;;5067235;28;20479;-78
2021/11/21 10:02:29;;;;;;;12.82;7.47;;;11.10;83.10;;;;;;5069239;28;20111;-76
2021/11/21 10:04:55;;;;;;;17.17;9.32;;;11.20;82.80;;;;;;5055975;28;20046;-73
2021/11/21 10:07:22;;;;;;;14.07;8.60;;;11.30;82.30;;;;;;5056433;28;20490;-74
2021/11/21 10:09:48;;;;;;;20.23;9.82;;;11.40;82.30;;;;;;5055312;28;20391;-73
2021/11/21 10:12:14;;;;;;;15.38;9.63;;;11.40;82.20;;;;;;5054682;28;20025;-73
2021/11/21 10:15:00;;;;;;;14.82;8.52;;;11.40;82.10;;;;;;5053339;28;20036;-75
2021/11/21 10:17:27;;;;;;;13.25;7.25;;;11.30;82.60;;;;;;5051168;28;20561;-75
2021/11/21 10:20:06;;;;;;;12.38;7.53;;;11.30;82.60;;;;;;5056462;28;20068;-76
2021/11/21 10:22:53;;;;;;;10.93;6.60;;;11.30;82.60;;;;;;5041555;28;20117;-77
2021/11/21 10:25:39;;;;;;;9.80;6.88;;;11.20;83.00;;;;;;5036647;28;20037;-75
2021/11/21 10:28:17;;;;;;;24.00;13.25;;;11.20;83.40;;;;;;5037128;28;20022;-76
2021/11/21 10:31:12;;;;;;;24.48;13.85;;;11.20;83.40;;;;;;5046921;28;20021;-76
2021/11/21 10:33:41;;;;;;;16.23;8.80;;;11.20;83.70;;;;;;5056205;28;20024;-76
2021/11/21 10:36:06;;;;;;;22.17;12.38;;;11.10;84.00;;;;;;5054877;28;20510;-77
2021/11/21 10:38:46;;;;;;;25.33;14.60;;;11.10;84.00;;;;;;5055209;28;20036;-79
2021/11/21 10:41:37;;;;;;;24.15;12.95;;;11.10;84.10;;;;;;5054246;28;20021;-85
2021/11/21 10:44:04;;;;;;;11.18;6.40;;;11.10;84.50;;;;;;5051657;28;20518;-82
2021/11/21 10:46:38;;;;;;;7.95;4.90;;;11.10;84.60;;;;;;5055756;28;20021;-88
2021/11/21 10:49:14;;;;;;;6.97;4.40;;;10.90;84.70;;;;;;5052789;28;20048;-82
2021/11/21 10:51:40;;;;;;;7.13;3.90;;;10.80;85.20;;;;;;5049615;28;20048;-84
2021/11/21 10:54:33;;;;;;;10.43;4.20;;;10.80;84.80;;;;;;5053365;28;20083;-82
2021/11/21 10:57:01;;;;;;;9.43;3.60;;;10.90;84.60;;;;;;5049337;28;20108;-84
2021/11/21 10:59:48;;;;;;;6.95;2.92;;;11.00;84.10;;;;;;5048317;28;20029;-83
2021/11/21 11:02:19;;;;;;;8.98;2.70;;;11.10;83.90;;;;;;5050712;28;20491;-79
2021/11/21 11:05:12;;;;;;;3.28;1.83;;;11.10;83.50;;;;;;5053836;28;20521;-80
2021/11/21 11:07:42;;;;;;;8.75;3.10;;;11.00;83.60;;;;;;5052747;28;20017;-82
2021/11/21 11:10:14;;;;;;;5.57;2.83;;;11.10;83.70;;;;;;5055165;28;20601;-81
2021/11/21 11:12:48;;;;;;;8.60;2.72;;;11.10;83.60;;;;;;5055552;28;20051;-87
2021/11/21 11:15:15;;;;;;;5.07;2.22;;;11.00;83.30;;;;;;5048117;28;20099;-86
2021/11/21 11:17:41;;;;;;;3.00;1.70;;;10.90;83.70;;;;;;5055828;28;20029;-86
2021/11/21 11:20:10;;;;;;;5.20;1.55;;;10.80;83.30;;;;;;5051145;28;20067;-86
2021/11/21 11:22:39;;;;;;;5.13;2.05;;;10.90;83.50;;;;;;5055230;28;20021;-86
2021/11/21 11:25:08;;;;;;;4.53;1.50;;;10.90;83.40;;;;;;5054435;28;20039;-85
2021/11/21 11:27:59;;;;;;;2.92;1.73;;;10.90;83.30;;;;;;5054589;28;20060;-86
2021/11/21 11:30:34;;;;;;;4.28;1.27;;;10.80;83.10;;;;;;5056971;28;20047;-86
2021/11/21 11:33:13;;;;;;;3.65;1.90;;;10.80;82.70;;;;;;5050462;28;20031;-85
2021/11/21 11:35:44;;;;;;;4.30;1.67;;;10.80;83.10;;;;;;5050475;28;20028;-83
2021/11/21 11:38:17;;;;;;;6.50;1.60;;;10.80;83.50;;;;;;5049912;28;20037;-83
2021/11/21 11:41:00;;;;;;;2.47;1.80;;;10.60;84.00;;;;;;5051535;28;20562;-84
2021/11/21 11:43:31;;;;;;;3.33;1.65;;;10.60;84.10;;;;;;5051038;28;20063;-85
2021/11/21 11:46:13;;;;;;;3.97;1.63;;;10.40;83.60;;;;;;5048329;28;20537;-84
2021/11/21 11:48:48;;;;;;;5.40;1.50;;;10.40;83.60;;;;;;5052366;28;20021;-80
2021/11/21 11:51:20;;;;;;;2.72;1.40;;;10.30;84.30;;;;;;5040638;28;20042;-85
2021/11/21 11:53:53;;;;;;;4.80;1.15;;;10.20;85.90;;;;;;5046631;28;20025;-81
2021/11/21 11:56:20;;;;;;;3.47;1.48;;;10.20;86.00;;;;;;5042067;28;20589;-83
2021/11/21 11:59:07;;;;;;;2.45;1.20;;;10.20;86.80;;;;;;5046954;28;20079;-80
2021/11/21 12:01:54;;;;;;;8.52;3.47;;;10.20;87.80;;;;;;5050161;28;20037;-83
2021/11/21 12:04:39;;;;;;;7.35;3.10;;;10.20;86.90;;;;;;5045453;28;20029;-83
2021/11/21 12:07:17;;;;;;;6.68;2.25;;;10.20;88.10;;;;;;5051151;28;20061;-81
2021/11/21 12:09:57;;;;;;;3.92;1.55;;;10.20;87.00;;;;;;5056613;28;20018;-84
2021/11/21 12:12:49;;;;;;;6.93;1.77;;;10.10;86.20;;;;;;5042291;28;20486;-82
2021/11/21 12:15:34;;;;;;;5.47;2.05;;;10.10;87.30;;;;;;5054527;28;20047;-84
2021/11/21 12:18:02;;;;;;;3.20;1.58;;;10.10;86.70;;;;;;5051957;28;20085;-80
2021/11/21 12:20:45;;;;;;;4.78;1.77;;;10.20;86.50;;;;;;5043366;28;20135;-80
2021/11/21 12:23:12;;;;;;;4.05;1.95;;;10.20;87.00;;;;;;5047719;28;20069;-79
2021/11/21 12:25:38;;;;;;;2.67;1.65;;;10.20;87.80;;;;;;5051175;28;20028;-79
2021/11/21 12:28:06;;;;;;;7.28;1.83;;;10.20;87.50;;;;;;5042847;28;20033;-79
2021/11/21 12:30:36;;;;;;;2.30;1.67;;;10.30;87.90;;;;;;5043061;28;20033;-80
2021/11/21 12:33:23;;;;;;;2.92;2.10;;;10.20;87.40;;;;;;5047364;28;20025;-79
2021/11/21 12:35:53;;;;;;;7.15;2.00;;;10.30;86.70;;;;;;5050430;28;20052;-79
2021/11/21 12:38:22;;;;;;;5.75;2.28;;;10.30;85.90;;;;;;5039932;28;20033;-80
2021/11/21 12:40:53;;;;;;;5.18;2.08;;;10.30;85.20;;;;;;5046966;28;20025;-80
2021/11/21 12:43:20;;;;;;;10.27;2.40;;;10.30;85.70;;;;;;5077006;28;20030;-84
2021/11/21 12:45:48;;;;;;;6.57;2.03;;;10.40;85.30;;;;;;5051829;28;20836;-85
2021/11/21 12:48:16;;;;;;;4.63;2.20;;;10.40;85.30;;;;;;5040557;28;20082;-85
2021/11/21 12:50:50;;;;;;;4.85;3.03;;;10.40;84.90;;;;;;5048301;28;20021;-81
2021/11/21 12:53:20;;;;;;;10.65;2.88;;;10.50;84.70;;;;;;5048899;28;20037;-78
2021/11/21 12:55:50;;;;;;;4.00;2.70;;;10.50;85.20;;;;;;5053060;28;20029;-77
2021/11/21 12:58:19;;;;;;;5.57;2.10;;;10.60;84.60;;;;;;5052759;28;20056;-78
2021/11/21 13:00:47;;;;;;;5.93;2.47;;;10.70;84.30;;;;;;5050428;28;20032;-78
2021/11/21 13:03:18;;;;;;;5.43;2.35;;;10.80;84.30;;;;;;5053030;28;20036;-78
2021/11/21 13:05:54;;;;;;;8.90;2.17;;;10.80;83.90;;;;;;5073563;28;20021;-78
2021/11/21 13:08:26;;;;;;;8.52;3.20;;;10.80;83.40;;;;;;5048312;28;20096;-79
2021/11/21 13:11:02;;;;;;;9.23;3.38;;;10.90;83.80;;;;;;5053125;28;20563;-78
2021/11/21 13:13:30;;;;;;;9.48;3.40;;;10.80;83.40;;;;;;5045372;28;20136;-78
2021/11/21 13:15:57;;;;;;;5.43;2.42;;;10.80;83.50;;;;;;5052168;28;20031;-77
2021/11/21 13:18:26;;;;;;;4.22;1.70;;;10.80;83.90;;;;;;5050821;28;20047;-78
2021/11/21 13:20:54;;;;;;;5.97;2.20;;;10.80;83.40;;;;;;5050511;28;20025;-78
2021/11/21 13:23:24;;;;;;;3.22;1.88;;;10.80;83.20;;;;;;5051949;28;20048;-78
2021/11/21 13:25:58;;;;;;;6.18;1.85;;;10.80;83.60;;;;;;5052210;28;20031;-77
2021/11/21 13:28:37;;;;;;;6.72;2.00;;;10.90;83.60;;;;;;5046514;28;20088;-78
2021/11/21 13:31:32;;;;;;;5.60;1.95;;;10.90;83.60;;;;;;5050732;28;20549;-77
2021/11/21 13:34:03;;;;;;;5.03;2.50;;;10.90;83.20;;;;;;5050838;28;20152;-77
2021/11/21 13:36:35;;;;;;;8.43;2.40;;;10.90;83.30;;;;;;5049670;28;20025;-78
2021/11/21 13:39:03;;;;;;;6.32;3.97;;;11.00;83.30;;;;;;5054556;28;20053;-78
2021/11/21 13:41:29;;;;;;;9.02;3.15;;;10.90;82.90;;;;;;5056745;28;20039;-78
2021/11/21 13:44:03;;;;;;;8.82;3.45;;;10.90;83.60;;;;;;5055072;28;20056;-78
2021/11/21 13:46:41;;;;;;;8.57;2.95;;;10.90;83.70;;;;;;5055775;28;20021;-78
2021/11/21 13:49:27;;;;;;;14.00;2.92;;;11.00;83.60;;;;;;5052890;28;20078;-78
2021/11/21 13:52:08;;;;;;;10.60;3.47;;;10.90;83.00;;;;;;5057500;28;20120;-78
2021/11/21 13:54:40;;;;;;;7.20;2.65;;;10.90;83.40;;;;;;5054463;28;20036;-78
2021/11/21 13:57:27;;;;;;;5.82;2.55;;;10.90;82.60;;;;;;5055018;28;20025;-78
2021/11/21 13:59:55;;;;;;;6.68;2.58;;;10.80;83.20;;;;;;5055289;28;20536;-78
2021/11/21 14:02:33;;;;;;;4.55;2.65;;;10.70;83.60;;;;;;5078516;28;20021;-78
2021/11/21 14:05:01;;;;;;;6.63;2.00;;;10.70;83.10;;;;;;5054856;28;20529;-77
2021/11/21 14:07:27;;;;;;;5.72;1.90;;;10.70;82.90;;;;;;5053055;28;20017;-78
2021/11/21 14:09:59;;;;;;;8.07;2.35;;;10.70;83.70;;;;;;5055403;28;20025;-78
2021/11/21 14:12:33;;;;;;;4.03;2.38;;;10.70;83.70;;;;;;5049108;28;20048;-78
2021/11/21 14:15:02;;;;;;;5.05;2.88;;;10.50;83.70;;;;;;5054129;28;20430;-78
2021/11/21 14:17:27;;;;;;;9.65;4.90;;;10.50;83.60;;;;;;5055961;28;20368;-78
2021/11/21 14:19:53;;;;;;;4.15;1.98;;;10.50;83.80;;;;;;5054222;28;20032;-78
2021/11/21 14:22:20;;;;;;;9.48;2.50;;;10.30;81.70;;;;;;5054853;28;20035;-78
2021/11/21 14:24:46;;;;;;;3.63;1.60;;;10.40;82.60;;;;;;5049788;28;20024;-78
2021/11/21 14:27:19;;;;;;;4.80;1.25;;;10.40;81.50;;;;;;5053856;28;20019;-78
2021/11/21 14:30:11;;;;;;;1.63;1.17;;;10.20;80.10;;;;;;5052342;28;20082;-78
2021/11/21 14:32:39;;;;;;;6.03;1.10;;;10.20;81.10;;;;;;5049153;28;20694;-78
2021/11/21 14:35:17;;;;;;;3.72;1.50;;;10.20;80.80;;;;;;5051626;28;20025;-78